Terminal Aerodrome Forecast
Issued by NWS Goodland, KS

Home | Current Version | Previous Version | Text Only | Print | Product List | Glossary On
Versions: 1 2 3 4 5 6 7 8 9 10 11 12 13 14 15
000
FTUS43 KGLD 162300
TAFGLD
TAF
KGLD 162320Z 1700/1724 02018G25KT P6SM SCT060 BKN230
     FM170100 03011KT P6SM FEW060 BKN230
     FM170600 08006KT P6SM BKN140
     FM171200 12007KT P6SM SCT020 BKN050
     FM171700 16012KT P6SM SCT015 BKN035
     FM171900 17015G24KT P6SM BKN050=

USA.gov is the U.S. government's official web portal to all federal, state and local government web resources and services.